Terminal Aerodrome Forecast
Issued by NWS Cleveland, OH

Home | Current Version | Previous Version | Graphics & Text | Print | Product List | Glossary On
Versions: 1 2 3 4 5 6 7 8 9 10 11 12 13 14 15 16 17 18 19
000
FTUS41 KCLE 290300 AAA
TAFMFD
TAF AMD
KMFD 290352Z 2904/2924 35006KT P6SM BKN025 BKN040
     FM290600 31004KT P6SM BKN040
     FM291400 28006KT P6SM BKN035
     FM292000 28008KT P6SM VCSH BKN050=

USA.gov is the U.S. government's official web portal to all federal, state and local government web resources and services.